Time;durP1;ratioP1;P1;durP2;ratioP2;P2;SDS_P1;SDS_P2;PMS_P1;PMS_P2;Temp;Humidity;BMP_temperature;BMP_pressure;BME280_temperature;BME280_humidity;BME280_pressure;Samples;Min_cycle;Max_cycle;Signal;HPM_P1;HPM_P2
2022/10/01 00:00:50;;;;;;;57.33;28.60;;;;;;;18.10;100.00;-18251.47;5115118;28;20181;-62
2022/10/01 00:03:18;;;;;;;36.03;21.07;;;;;;;18.01;100.00;-18249.44;5115606;28;20186;-64
2022/10/01 00:05:45;;;;;;;45.17;22.73;;;;;;;18.02;100.00;-18249.69;5115409;28;20549;-62
2022/10/01 00:08:15;;;;;;;30.83;18.40;;;;;;;17.89;100.00;-18246.47;5114979;28;20200;-63
2022/10/01 00:10:42;;;;;;;29.40;17.13;;;;;;;17.84;100.00;-18245.38;5114953;28;20278;-63
2022/10/01 00:13:10;;;;;;;22.47;15.93;;;;;;;17.67;100.00;-18241.31;5114901;28;20269;-62
2022/10/01 00:15:39;;;;;;;16.20;14.53;;;;;;;17.75;100.00;-18243.34;5114918;28;20195;-62
2022/10/01 00:18:07;;;;;;;15.47;13.83;;;;;;;17.57;100.00;-18238.91;5114528;28;20194;-61
2022/10/01 00:20:34;;;;;;;16.57;14.97;;;;;;;17.40;100.00;-18234.84;5115130;28;20211;-63
2022/10/01 00:23:00;;;;;;;18.00;14.43;;;;;;;17.23;100.00;-18230.91;5115099;28;20666;-62
2022/10/01 00:25:29;;;;;;;21.80;15.37;;;;;;;17.32;100.00;-18233.06;5115224;28;20634;-64
2022/10/01 00:27:56;;;;;;;24.70;15.50;;;;;;;17.36;100.00;-18234.13;5114920;28;20211;-63
2022/10/01 00:30:23;;;;;;;31.27;15.63;;;;;;;17.26;100.00;-18231.63;5115093;28;20589;-63
2022/10/01 00:32:53;;;;;;;18.37;16.10;;;;;;;17.28;100.00;-18232.09;5114965;28;20192;-62
2022/10/01 00:35:21;;;;;;;24.80;17.70;;;;;;;17.04;100.00;-18226.47;5115028;28;20244;-63
2022/10/01 00:37:49;;;;;;;18.63;16.70;;;;;;;16.92;100.00;-18223.47;5114851;28;20184;-62
2022/10/01 00:40:16;;;;;;;18.37;16.40;;;;;;;16.97;100.00;-18224.78;5114796;28;20219;-63
2022/10/01 00:42:45;;;;;;;20.70;18.37;;;;;;;17.19;100.00;-18229.94;5114774;28;20189;-63
2022/10/01 00:45:14;;;;;;;25.77;19.17;;;;;;;17.27;100.00;-18231.84;5114566;28;20221;-62
2022/10/01 00:47:43;;;;;;;22.33;19.97;;;;;;;17.37;100.00;-18234.25;5114511;28;20237;-63
2022/10/01 00:50:18;;;;;;;30.43;22.80;;;;;;;17.47;100.00;-18236.53;5114258;28;20180;-62
2022/10/01 00:52:50;;;;;;;30.47;21.47;;;;;;;17.54;100.00;-18238.31;5114448;28;20183;-63
2022/10/01 00:55:23;;;;;;;22.47;19.07;;;;;;;17.58;100.00;-18239.28;5114417;28;20649;-63
2022/10/01 00:57:52;;;;;;;30.03;19.70;;;;;;;17.37;100.00;-18234.25;5114121;28;20187;-62
2022/10/01 01:00:19;;;;;;;24.90;18.23;;;;;;;17.43;100.00;-18235.69;5114371;28;20184;-62
2022/10/01 01:02:46;;;;;;;26.67;19.63;;;;;;;17.49;100.00;-18237.13;5114256;28;20701;-62
2022/10/01 01:05:14;;;;;;;21.33;18.97;;;;;;;17.60;100.00;-18239.75;5114330;28;20644;-62
2022/10/01 01:07:44;;;;;;;20.17;18.20;;;;;;;17.65;100.00;-18240.94;5114138;28;20681;-62
2022/10/01 01:10:15;;;;;;;24.90;17.80;;;;;;;17.61;100.00;-18240.00;5113907;28;20191;-64
2022/10/01 01:13:06;;;;;;;22.20;17.70;;;;;;;17.55;100.00;-18238.44;5113770;28;20194;-62
2022/10/01 01:15:39;;;;;;;21.67;18.20;;;;;;;17.45;100.00;-18236.16;5114049;28;20606;-63
2022/10/01 01:18:11;;;;;;;27.73;18.50;;;;;;;17.40;100.00;-18234.84;5113502;28;20175;-63
2022/10/01 01:21:06;;;;;;;19.27;16.87;;;;;;;17.08;100.00;-18227.31;5114074;28;20638;-62
2022/10/01 01:23:54;;;;;;;25.23;16.00;;;;;;;17.25;100.00;-18231.50;5113870;28;20539;-63
2022/10/01 01:26:32;;;;;;;19.40;16.40;;;;;;;17.35;100.00;-18233.78;5113927;28;20610;-63
2022/10/01 01:29:05;;;;;;;21.37;16.00;;;;;;;17.30;100.00;-18232.69;5113229;28;20324;-63
2022/10/01 01:31:37;;;;;;;20.77;14.77;;;;;;;17.25;100.00;-18231.38;5113975;28;20218;-62
2022/10/01 01:34:11;;;;;;;16.43;14.80;;;;;;;17.23;100.00;-18230.91;5113829;28;20741;-63
2022/10/01 01:36:43;;;;;;;14.37;13.00;;;;;;;17.04;100.00;-18226.34;5113645;28;20179;-62
2022/10/01 01:39:13;;;;;;;14.17;12.83;;;;;;;17.21;100.00;-18230.41;5113296;28;20191;-62
2022/10/01 01:41:49;;;;;;;14.27;12.40;;;;;;;17.07;100.00;-18227.19;5113585;28;20183;-62
2022/10/01 01:44:22;;;;;;;16.07;11.50;;;;;;;17.07;100.00;-18227.19;5113091;28;20187;-62
2022/10/01 01:46:51;;;;;;;16.37;12.07;;;;;;;17.21;100.00;-18230.41;5113323;28;20183;-63
2022/10/01 01:49:20;;;;;;;17.47;12.27;;;;;;;17.16;100.00;-18229.22;5113301;28;20673;-62
2022/10/01 01:51:51;;;;;;;13.60;11.63;;;;;;;17.25;100.00;-18231.38;5112943;28;20198;-64
2022/10/01 01:54:19;;;;;;;24.20;12.80;;;;;;;17.32;100.00;-18233.06;5112978;28;20186;-62
2022/10/01 01:56:48;;;;;;;18.27;11.70;;;;;;;17.18;100.00;-18229.81;5113246;28;20535;-62
2022/10/01 01:59:18;;;;;;;20.03;12.63;;;;;;;17.06;100.00;-18226.81;5113119;28;20179;-63
2022/10/01 02:01:46;;;;;;;17.70;12.40;;;;;;;17.28;100.00;-18232.09;5113168;28;20643;-63
2022/10/01 02:04:19;;;;;;;24.43;12.53;;;;;;;17.07;100.00;-18227.19;5112709;28;20194;-62
2022/10/01 02:07:04;;;;;;;29.57;13.50;;;;;;;17.03;100.00;-18226.22;5113090;28;20290;-61
2022/10/01 02:09:36;;;;;;;21.27;12.90;;;;;;;16.78;100.00;-18220.25;5112646;28;20214;-60
2022/10/01 02:12:16;;;;;;;18.47;11.90;;;;;;;16.84;100.00;-18221.78;5112927;28;20626;-61
2022/10/01 02:14:53;;;;;;;17.87;11.77;;;;;;;16.83;100.00;-18221.44;5112542;28;20189;-61
2022/10/01 02:17:29;;;;;;;16.93;12.07;;;;;;;16.80;100.00;-18220.84;5112834;28;20184;-60
2022/10/01 02:20:02;;;;;;;22.30;12.77;;;;;;;16.78;100.00;-18220.25;5112359;28;20222;-60
2022/10/01 02:22:39;;;;;;;13.30;11.97;;;;;;;16.75;100.00;-18219.53;5112861;28;20646;-64
2022/10/01 02:25:08;;;;;;;16.03;11.57;;;;;;;16.41;100.00;-18211.47;5112486;28;20187;-61
2022/10/01 02:27:43;;;;;;;13.13;11.27;;;;;;;16.31;100.00;-18209.22;5112345;28;20187;-61
2022/10/01 02:30:12;;;;;;;11.77;10.70;;;;;;;16.37;100.00;-18210.53;5112593;28;20282;-60
2022/10/01 02:32:42;;;;;;;11.67;10.47;;;;;;;16.27;100.00;-18208.25;5112606;28;20198;-60
2022/10/01 02:35:14;;;;;;;11.90;10.80;;;;;;;16.03;100.00;-18202.38;5112733;28;20199;-60
2022/10/01 02:37:43;;;;;;;16.60;10.87;;;;;;;16.15;100.00;-18205.38;5112306;28;20187;-60
2022/10/01 02:40:14;;;;;;;13.97;12.27;;;;;;;16.11;100.00;-18204.28;5111609;28;20612;-61
2022/10/01 02:42:46;;;;;;;13.97;12.63;;;;;;;16.04;100.00;-18202.63;5112522;28;20572;-60
2022/10/01 02:45:18;;;;;;;14.57;13.47;;;;;;;16.29;100.00;-18208.72;5112174;28;20187;-60
2022/10/01 02:47:51;;;;;;;21.83;13.57;;;;;;;16.08;100.00;-18203.56;5112385;28;20569;-60
2022/10/01 02:50:19;;;;;;;22.30;14.97;;;;;;;16.15;100.00;-18205.25;5112406;28;20652;-60
2022/10/01 02:52:53;;;;;;;16.10;14.43;;;;;;;16.28;100.00;-18208.38;5112011;28;20223;-60
2022/10/01 02:55:24;;;;;;;16.80;15.10;;;;;;;16.00;100.00;-18201.88;5112360;28;20213;-60
2022/10/01 02:57:51;;;;;;;25.23;17.20;;;;;;;16.29;100.00;-18208.59;5111930;28;20222;-62
2022/10/01 03:00:20;;;;;;;22.43;17.67;;;;;;;16.23;100.00;-18207.16;5112294;28;20649;-60
2022/10/01 03:02:47;;;;;;;23.23;17.93;;;;;;;16.18;100.00;-18205.97;5112365;28;20180;-60
2022/10/01 03:05:15;;;;;;;23.20;17.13;;;;;;;16.42;100.00;-18211.72;5112086;28;20184;-61
2022/10/01 03:07:42;;;;;;;21.83;16.60;;;;;;;16.21;100.00;-18206.81;5111925;28;20179;-60
2022/10/01 03:10:11;;;;;;;25.97;16.43;;;;;;;15.90;100.00;-18199.38;5111817;28;20217;-60
2022/10/01 03:12:43;;;;;;;18.40;14.53;;;;;;;15.93;100.00;-18200.22;5111865;28;20191;-61
2022/10/01 03:15:11;;;;;;;16.47;14.40;;;;;;;15.99;100.00;-18201.66;5112217;28;20642;-61
2022/10/01 03:17:39;;;;;;;18.57;16.63;;;;;;;16.20;100.00;-18206.56;5111832;28;20189;-60
2022/10/01 03:20:07;;;;;;;19.30;17.10;;;;;;;16.30;100.00;-18208.84;5111649;28;20531;-60
2022/10/01 03:22:34;;;;;;;17.47;15.57;;;;;;;16.33;100.00;-18209.56;5111842;28;20237;-60
2022/10/01 03:25:01;;;;;;;17.43;15.67;;;;;;;16.26;100.00;-18207.88;5111738;28;20188;-60
2022/10/01 03:27:28;;;;;;;22.60;15.90;;;;;;;16.25;100.00;-18207.66;5112154;28;20219;-60
2022/10/01 03:29:54;;;;;;;17.33;15.63;;;;;;;16.16;100.00;-18205.63;5111893;28;20329;-61
2022/10/01 03:32:21;;;;;;;22.77;14.40;;;;;;;16.11;100.00;-18204.41;5112034;28;20184;-61
2022/10/01 03:34:50;;;;;;;17.40;14.03;;;;;;;16.20;100.00;-18206.44;5111914;28;20255;-61
2022/10/01 03:37:17;;;;;;;16.43;14.83;;;;;;;16.20;100.00;-18206.44;5111939;28;20183;-60
2022/10/01 03:39:44;;;;;;;16.17;13.90;;;;;;;16.17;100.00;-18205.72;5111705;28;20274;-60
2022/10/01 03:42:11;;;;;;;23.43;16.10;;;;;;;16.07;100.00;-18203.34;5112023;28;20590;-61
2022/10/01 03:44:38;;;;;;;21.60;15.47;;;;;;;15.97;100.00;-18201.06;5111847;28;20187;-60
2022/10/01 03:47:04;;;;;;;23.03;15.63;;;;;;;16.03;100.00;-18202.38;5111635;28;20194;-61
2022/10/01 03:49:32;;;;;;;20.53;15.53;;;;;;;16.09;100.00;-18203.81;5111554;28;20207;-60
2022/10/01 03:52:01;;;;;;;17.53;15.80;;;;;;;16.16;100.00;-18205.50;5113283;28;20187;-61
2022/10/01 03:54:30;;;;;;;25.87;16.10;;;;;;;16.10;100.00;-18204.16;5115387;28;20184;-60
2022/10/01 03:56:57;;;;;;;18.10;16.10;;;;;;;16.16;100.00;-18205.63;5115470;28;20331;-61
2022/10/01 03:59:25;;;;;;;17.50;15.70;;;;;;;16.30;100.00;-18208.97;5115231;28;20187;-60
2022/10/01 04:01:53;;;;;;;25.20;15.93;;;;;;;16.30;100.00;-18208.97;5115177;28;20282;-60
2022/10/01 04:04:20;;;;;;;20.30;15.27;;;;;;;16.32;100.00;-18209.31;5115489;28;20264;-61
2022/10/01 04:06:47;;;;;;;23.33;16.23;;;;;;;16.33;100.00;-18209.56;5115047;28;20183;-60
2022/10/01 04:09:15;;;;;;;19.03;15.80;;;;;;;16.56;100.00;-18215.06;5115067;28;20298;-60
2022/10/01 04:11:42;;;;;;;21.93;16.93;;;;;;;16.65;100.00;-18217.25;5115279;28;20179;-61
2022/10/01 04:14:09;;;;;;;28.60;15.63;;;;;;;16.75;100.00;-18219.63;5115299;28;20183;-60
2022/10/01 04:16:36;;;;;;;18.27;16.43;;;;;;;16.68;100.00;-18217.97;5115280;28;20634;-60
2022/10/01 04:19:03;;;;;;;33.70;15.83;;;;;;;16.74;100.00;-18219.41;5114805;28;20237;-61
2022/10/01 04:21:30;;;;;;;19.53;14.77;;;;;;;16.79;100.00;-18220.47;5114771;28;20196;-62
2022/10/01 04:23:58;;;;;;;20.27;15.40;;;;;;;16.80;100.00;-18220.84;5114812;28;20211;-60
2022/10/01 04:26:26;;;;;;;23.63;15.23;;;;;;;16.78;100.00;-18220.34;5114811;28;20183;-60
2022/10/01 04:28:53;;;;;;;20.30;15.23;;;;;;;16.92;100.00;-18223.47;5114878;28;20597;-60
2022/10/01 04:31:26;;;;;;;17.13;15.37;;;;;;;16.67;100.00;-18217.72;5114928;28;20565;-60
2022/10/01 04:33:54;;;;;;;26.90;15.97;;;;;;;16.89;100.00;-18222.88;5114633;28;20196;-60
2022/10/01 04:36:22;;;;;;;28.53;15.70;;;;;;;16.86;100.00;-18222.28;5114570;28;20183;-61
2022/10/01 04:38:51;;;;;;;25.67;16.70;;;;;;;16.80;100.00;-18220.84;5114462;28;20196;-60
2022/10/01 04:41:18;;;;;;;30.20;16.33;;;;;;;17.12;100.00;-18228.38;5114435;28;20187;-60
2022/10/01 04:43:47;;;;;;;33.83;16.83;;;;;;;17.31;100.00;-18232.81;5114275;28;20282;-60
2022/10/01 04:46:14;;;;;;;20.00;14.67;;;;;;;18.02;100.00;-17604.63;5114468;28;20198;-60
2022/10/01 04:48:41;;;;;;;21.77;14.73;;;;;;;18.79;100.00;-11820.50;5114288;28;20213;-60
2022/10/01 04:51:08;;;;;;;34.47;15.13;;;;;;;19.35;100.00;140.34;5114288;28;20194;-61
2022/10/01 04:53:35;;;;;;;27.37;14.63;;;;;;;19.78;100.00;22921.47;5114350;28;20184;-61
2022/10/01 04:56:02;;;;;;;32.30;14.47;;;;;;;20.40;100.00;43932.44;5114172;28;20194;-61
2022/10/01 04:58:30;;;;;;;19.43;13.27;;;;;;;20.90;100.00;67091.38;5114073;28;20187;-62
2022/10/01 05:00:58;;;;;;;28.90;14.53;;;;;;;21.26;100.00;112531.88;5114564;28;20614;-64
2022/10/01 05:03:25;;;;;;;30.57;14.13;;;;;;;21.23;100.00;150745.41;5113432;28;20179;-61
2022/10/01 05:05:52;;;;;;;29.77;14.03;;;;;;;21.48;100.00;151438.03;5114237;28;20189;-61
2022/10/01 05:08:21;;;;;;;27.17;14.87;;;;;;;21.34;100.00;151403.63;5113953;28;20184;-61
2022/10/01 05:10:48;;;;;;;28.75;16.27;;;;;;;21.50;100.00;151441.88;5113911;28;20180;-60
2022/10/01 05:13:15;;;;;;;25.00;15.85;;;;;;;21.47;100.00;151435.53;5113877;28;20187;-61
2022/10/01 05:15:43;;;;;;;21.20;15.00;;;;;;;21.69;100.00;151490.28;5095731;28;20238;-61
2022/10/01 05:18:12;;;;;;;25.30;14.93;;;;;;;22.28;100.00;151640.75;5113937;28;20225;-61
2022/10/01 05:20:38;;;;;;;31.67;15.27;;;;;;;22.68;100.00;151741.53;5095959;28;20255;-61
2022/10/01 05:23:05;;;;;;;20.70;14.57;;;;;;;23.46;100.00;151936.84;5113780;28;20190;-61
2022/10/01 05:25:32;;;;;;;35.42;13.95;;;;;;;23.92;100.00;152054.25;5113715;28;20183;-61
2022/10/01 05:28:07;;;;;;;26.35;14.55;;;;;;;24.06;100.00;152088.72;5113606;28;20275;-62
2022/10/01 05:30:34;;;;;;;27.13;14.13;;;;;;;23.84;100.00;152032.56;5113620;28;20212;-61
2022/10/01 05:33:03;;;;;;;29.27;14.27;;;;;;;23.68;100.00;151992.94;5113767;28;20258;-61
2022/10/01 05:35:31;;;;;;;30.50;14.77;;;;;;;23.63;100.00;151981.50;5113692;28;20279;-61
2022/10/01 05:38:03;;;;;;;40.75;17.35;;;;;;;23.22;100.00;151876.78;5113358;28;20191;-61
2022/10/01 05:40:30;;;;;;;103.57;48.22;;;;;;;23.45;100.00;151934.28;5113284;28;20183;-62
2022/10/01 05:42:58;;;;;;;106.90;43.95;;;;;;;23.25;100.00;151883.19;5113781;28;20183;-61
2022/10/01 05:45:27;;;;;;;99.57;43.08;;;;;;;23.09;100.00;151843.59;5113728;28;20672;-61
2022/10/01 05:47:58;;;;;;;83.68;34.55;;;;;;;23.28;100.00;151890.84;5113282;28;20189;-61
2022/10/01 05:50:25;;;;;;;73.07;26.38;;;;;;;23.58;100.00;151967.47;5113318;28;20294;-62
2022/10/01 05:52:54;;;;;;;73.75;24.35;;;;;;;23.86;100.00;152038.91;5113043;28;20187;-61
2022/10/01 05:55:23;;;;;;;53.75;17.60;;;;;;;23.99;100.00;152072.13;5113050;28;20183;-61
2022/10/01 05:57:57;;;;;;;66.95;20.10;;;;;;;24.48;100.00;152196.03;5112956;28;20190;-62
2022/10/01 06:00:26;;;;;;;57.20;19.05;;;;;;;24.68;100.00;152244.53;5113292;28;20182;-61
2022/10/01 06:02:53;;;;;;;34.08;14.23;;;;;;;25.16;100.00;152367.22;5113332;28;20176;-61
2022/10/01 06:05:21;;;;;;;27.52;11.88;;;;;;;26.00;100.00;152579.41;5113025;28;20278;-62
2022/10/01 06:07:48;;;;;;;29.92;11.35;;;;;;;26.76;100.00;152772.53;5113124;28;20199;-61
2022/10/01 06:10:17;;;;;;;27.42;10.32;;;;;;;27.37;100.00;152926.03;5113201;28;20211;-62
2022/10/01 06:12:44;;;;;;;15.00;9.07;;;;;;;27.79;100.00;153031.03;5113145;28;20561;-61
2022/10/01 06:15:12;;;;;;;16.17;8.80;;;;;;;28.03;100.00;153092.47;5112606;28;20194;-62
2022/10/01 06:17:43;;;;;;;12.50;7.93;;;;;;;28.25;100.00;153147.53;5112747;28;20183;-62
2022/10/01 06:20:12;;;;;;;13.30;8.60;;;;;;;28.15;100.00;153123.22;5112316;28;20246;-61
2022/10/01 06:22:39;;;;;;;20.73;8.82;;;;;;;28.46;100.00;153201.31;5112953;28;20180;-62
2022/10/01 06:25:07;;;;;;;22.02;9.02;;;;;;;28.61;100.00;153239.69;5112554;28;20198;-61
2022/10/01 06:27:36;;;;;;;8.48;7.95;;;;;;;28.74;100.00;153271.75;5112605;28;20187;-61
2022/10/01 06:30:04;;;;;;;10.23;8.15;;;;;;;29.05;100.00;153351.19;5112564;28;20211;-61
2022/10/01 06:32:31;;;;;;;10.95;7.97;;;;;;;28.83;100.00;153294.81;5112699;28;20187;-62
2022/10/01 06:34:58;;;;;;;41.05;11.35;;;;;;;28.81;100.00;153289.72;5112942;28;20617;-62
2022/10/01 06:37:24;;;;;;;22.15;10.25;;;;;;;29.12;100.00;153367.81;5112448;28;20188;-61
2022/10/01 06:39:51;;;;;;;17.65;9.27;;;;;;;28.94;100.00;153323.03;5112562;28;20549;-61
2022/10/01 06:42:18;;;;;;;19.40;9.32;;;;;;;28.73;100.00;153270.47;5112441;28;20187;-62
2022/10/01 06:44:46;;;;;;;27.98;10.98;;;;;;;28.75;100.00;153274.34;5112229;28;20187;-63
2022/10/01 06:47:13;;;;;;;24.27;10.52;;;;;;;29.10;100.00;153364.00;5112195;28;20198;-62
2022/10/01 06:49:40;;;;;;;17.00;9.63;;;;;;;29.19;100.00;153387.06;5111860;28;20211;-62
2022/10/01 06:54:54;;;;;;;22.42;11.52;;;;;;;29.52;100.00;153469.06;5112474;28;20277;-62
2022/10/01 06:57:21;;;;;;;26.30;10.63;;;;;;;29.70;100.00;153515.19;5112095;28;20199;-62
2022/10/01 06:59:49;;;;;;;17.95;10.63;;;;;;;30.07;100.00;153610.06;5112286;28;20527;-62
2022/10/01 07:02:23;;;;;;;17.52;9.90;;;;;;;30.32;100.00;153674.13;5112233;28;20184;-62
2022/10/01 07:04:49;;;;;;;14.50;10.23;;;;;;;30.63;100.00;153751.09;5111951;28;20194;-62
2022/10/01 07:07:16;;;;;;;14.43;9.73;;;;;;;30.42;100.00;153697.22;5112000;28;20296;-61
2022/10/01 07:09:43;;;;;;;11.85;10.60;;;;;;;30.64;100.00;153753.69;5111816;28;20208;-62
2022/10/01 07:12:10;;;;;;;18.92;9.80;;;;;;;30.98;100.00;153839.56;5111849;28;20175;-62
2022/10/01 07:14:37;;;;;;;24.27;9.13;;;;;;;31.16;100.00;153885.75;5112241;28;20183;-62
2022/10/01 07:17:05;;;;;;;19.33;9.38;;;;;;;31.36;100.00;153935.78;5111842;28;20187;-61
2022/10/01 07:19:32;;;;;;;17.33;9.15;;;;;;;31.38;100.00;153940.91;5111834;28;20314;-62
2022/10/01 07:21:59;;;;;;;13.50;8.82;;;;;;;31.38;100.00;153942.19;5112358;28;20517;-62
2022/10/01 07:24:26;;;;;;;18.30;8.80;;;;;;;31.94;100.00;154084.63;5112214;28;20746;-61
2022/10/01 07:26:54;;;;;;;9.85;8.02;;;;;;;32.43;95.74;154209.13;5095468;28;20290;-62
2022/10/01 07:29:23;;;;;;;20.00;7.93;;;;;;;33.00;91.85;154352.94;5115766;28;20193;-62
2022/10/01 07:31:50;;;;;;;13.13;7.25;;;;;;;33.06;84.91;154369.59;5097944;28;20183;-62
2022/10/01 07:34:18;;;;;;;19.42;8.13;;;;;;;33.41;83.54;154456.97;5115932;28;20573;-61
2022/10/01 07:36:49;;;;;;;18.20;6.88;;;;;;;33.64;73.40;154516.03;5116026;28;20190;-62
2022/10/01 07:39:16;;;;;;;20.95;6.40;;;;;;;33.48;73.26;154476.22;5117416;28;20206;-66
2022/10/01 07:41:43;;;;;;;15.75;6.20;;;;;;;32.70;72.39;154275.91;5117062;28;20193;-66
2022/10/01 07:44:11;;;;;;;8.98;5.50;;;;;;;31.91;76.22;154076.91;5116939;28;20180;-66
2022/10/01 07:46:38;;;;;;;22.98;6.25;;;;;;;31.68;83.05;154017.91;5117161;28;20607;-67
2022/10/01 07:49:05;;;;;;;9.38;5.88;;;;;;;31.73;75.40;154032.03;5117080;28;20622;-66
2022/10/01 07:51:35;;;;;;;7.05;5.63;;;;;;;31.65;77.19;154010.22;5116752;28;20203;-67
2022/10/01 07:54:02;;;;;;;6.85;4.13;;;;;;;31.60;69.97;153997.41;5116797;28;20241;-67
2022/10/01 07:56:29;;;;;;;7.43;4.72;;;;;;;31.15;74.52;153883.19;5116722;28;20569;-66
2022/10/01 07:58:57;;;;;;;7.70;4.22;;;;;;;31.19;72.69;153893.47;5098570;28;20253;-67
2022/10/01 08:01:24;;;;;;;9.05;4.78;;;;;;;31.33;77.02;153929.34;5117019;28;20184;-67
2022/10/01 08:03:52;;;;;;;5.00;4.50;;;;;;;31.64;70.44;154007.66;5116473;28;20190;-67
2022/10/01 08:06:20;;;;;;;4.60;3.60;;;;;;;31.50;66.81;153971.69;5116517;28;20179;-67
2022/10/01 08:08:48;;;;;;;3.65;3.30;;;;;;;31.54;68.61;153983.28;5115564;28;20191;-68
2022/10/01 08:11:17;;;;;;;6.15;3.28;;;;;;;32.02;63.48;154105.16;5116047;28;20199;-67
2022/10/01 08:13:44;;;;;;;4.28;2.63;;;;;;;31.92;59.66;154079.47;5115878;28;20194;-67
2022/10/01 08:16:12;;;;;;;2.65;2.45;;;;;;;32.25;57.76;154162.97;5116096;28;20183;-67
2022/10/01 08:18:40;;;;;;;2.75;2.55;;;;;;;31.71;60.56;154025.59;5115397;28;20231;-67
2022/10/01 08:21:07;;;;;;;3.83;3.35;;;;;;;31.59;62.49;153996.09;5115502;28;20187;-68
2022/10/01 08:23:37;;;;;;;3.08;2.80;;;;;;;31.97;60.43;154092.31;5115500;28;20188;-67
2022/10/01 08:26:07;;;;;;;3.17;2.83;;;;;;;32.30;56.09;154174.47;5115497;28;20190;-66
2022/10/01 08:28:35;;;;;;;3.00;2.40;;;;;;;32.15;58.61;154137.28;5115871;28;20194;-67
2022/10/01 08:31:07;;;;;;;3.00;2.80;;;;;;;32.29;58.77;154171.94;5116130;28;20207;-67
2022/10/01 08:33:36;;;;;;;2.90;2.70;;;;;;;32.15;57.40;154137.28;5116429;28;20220;-66
2022/10/01 08:36:07;;;;;;;5.35;2.90;;;;;;;32.17;59.07;154143.69;5117063;28;20642;-67
2022/10/01 08:38:34;;;;;;;4.28;2.70;;;;;;;31.89;58.72;154071.78;5116573;28;20561;-67
2022/10/01 08:41:12;;;;;;;2.58;2.35;;;;;;;31.88;57.09;154069.22;5115933;28;20626;-67
2022/10/01 08:43:41;;;;;;;2.63;2.40;;;;;;;32.11;57.14;154128.31;5116713;28;20602;-66
2022/10/01 08:46:15;;;;;;;3.33;3.13;;;;;;;31.51;59.63;153974.25;5097717;28;20203;-67
2022/10/01 08:48:52;;;;;;;2.70;2.60;;;;;;;31.40;60.72;153946.06;5097562;28;20188;-67
2022/10/01 08:51:28;;;;;;;4.00;2.72;;;;;;;31.84;58.12;154058.94;5115344;28;20264;-66
2022/10/01 08:53:59;;;;;;;3.80;3.03;;;;;;;31.57;60.33;153989.72;5115278;28;20236;-67
2022/10/01 08:56:31;;;;;;;5.78;2.65;;;;;;;31.87;58.67;154066.63;5115189;28;20179;-67
2022/10/01 08:59:04;;;;;;;3.05;2.85;;;;;;;32.21;58.01;154152.66;5115578;28;20186;-67
2022/10/01 09:01:31;;;;;;;3.15;2.90;;;;;;;31.94;59.11;154084.63;5115275;28;20190;-67
2022/10/01 09:03:59;;;;;;;2.95;2.75;;;;;;;32.08;59.13;154119.28;5115004;28;20331;-67
2022/10/01 09:06:27;;;;;;;3.97;2.78;;;;;;;32.12;57.88;154129.59;5115025;28;20560;-67
2022/10/01 09:09:26;;;;;;;2.60;2.47;;;;;;;31.96;58.42;154088.44;5115516;28;20179;-67
2022/10/01 09:12:03;;;;;;;4.30;2.90;;;;;;;32.27;58.04;154166.78;5095498;28;20227;-68
2022/10/01 09:14:51;;;;;;;2.55;2.45;;;;;;;32.73;55.24;154284.88;5114590;28;20183;-68
2022/10/01 09:17:41;;;;;;;5.30;2.85;;;;;;;32.87;55.53;154320.84;5114766;28;20189;-67
2022/10/01 09:20:16;;;;;;;4.35;2.70;;;;;;;32.49;54.96;154224.53;5114329;28;20231;-67
2022/10/01 09:22:51;;;;;;;4.32;2.58;;;;;;;32.88;55.10;154323.44;5114870;28;20274;-67
2022/10/01 09:25:22;;;;;;;2.72;2.63;;;;;;;32.09;56.48;154123.16;5114821;28;20222;-66
2022/10/01 09:27:50;;;;;;;2.67;2.40;;;;;;;31.97;59.11;154092.31;5114751;28;20193;-67
2022/10/01 09:30:22;;;;;;;2.50;2.40;;;;;;;31.89;62.21;154070.50;5114309;28;20234;-67
2022/10/01 09:32:53;;;;;;;3.10;2.80;;;;;;;31.90;63.11;154074.38;5113889;28;20657;-66
2022/10/01 09:35:42;;;;;;;3.10;2.78;;;;;;;31.49;65.45;153970.38;5114756;28;20202;-66
2022/10/01 09:38:18;;;;;;;3.40;3.08;;;;;;;31.86;64.89;154062.81;5114188;28;20192;-67
2022/10/01 09:40:53;;;;;;;6.22;3.22;;;;;;;31.31;68.38;153924.25;5114340;28;20557;-67
2022/10/01 09:43:22;;;;;;;3.72;2.70;;;;;;;31.81;69.58;154051.28;5114030;28;20219;-67
2022/10/01 09:45:51;;;;;;;2.97;2.88;;;;;;;31.63;69.27;154005.06;5113997;28;20225;-67
2022/10/01 09:48:30;;;;;;;3.15;2.95;;;;;;;32.03;69.37;154107.72;5113914;28;20611;-67
2022/10/01 09:51:04;;;;;;;3.22;3.03;;;;;;;31.33;72.10;153928.06;5113667;28;20217;-67
2022/10/01 09:53:36;;;;;;;3.38;3.08;;;;;;;31.83;69.56;154056.38;5113970;28;20175;-66
2022/10/01 09:56:13;;;;;;;3.30;3.00;;;;;;;31.47;72.31;153964.00;5113568;28;20642;-67
2022/10/01 09:58:46;;;;;;;6.82;3.20;;;;;;;31.73;71.84;154030.75;5114118;28;20187;-67
2022/10/01 10:01:23;;;;;;;3.40;3.10;;;;;;;31.97;71.83;154091.03;5114277;28;20179;-68
2022/10/01 10:03:55;;;;;;;3.20;3.10;;;;;;;32.68;69.04;154272.03;5113815;28;20625;-68
2022/10/01 10:06:27;;;;;;;3.40;3.10;;;;;;;33.18;64.88;154397.91;5114038;28;20580;-67
2022/10/01 10:08:55;;;;;;;3.38;3.17;;;;;;;32.55;67.88;154239.91;5114154;28;20626;-67
2022/10/01 10:11:25;;;;;;;3.50;3.30;;;;;;;32.97;63.69;154345.25;5113147;28;20203;-67
2022/10/01 10:13:55;;;;;;;4.90;3.60;;;;;;;32.56;67.99;154241.19;5113628;28;20184;-68
2022/10/01 10:16:26;;;;;;;3.90;3.50;;;;;;;33.36;65.91;154444.09;5113513;28;20187;-67
2022/10/01 10:18:56;;;;;;;3.45;3.35;;;;;;;34.24;60.21;154669.00;5113094;28;20223;-67
2022/10/01 10:21:26;;;;;;;4.70;3.30;;;;;;;34.25;58.59;154670.25;5095612;28;20211;-67
2022/10/01 10:23:55;;;;;;;3.80;3.60;;;;;;;34.19;60.96;154654.84;5114085;28;20187;-67
2022/10/01 10:26:28;;;;;;;3.78;3.58;;;;;;;33.73;59.67;154539.22;5113795;28;20610;-68
2022/10/01 10:28:56;;;;;;;6.90;3.30;;;;;;;33.03;65.65;154361.91;5113225;28;20184;-67
2022/10/01 10:31:26;;;;;;;3.72;3.42;;;;;;;33.60;61.88;154505.78;5095583;28;20207;-67
2022/10/01 10:33:56;;;;;;;3.85;3.65;;;;;;;33.15;62.77;154390.19;5113156;28;20203;-67
2022/10/01 10:36:28;;;;;;;3.58;3.10;;;;;;;33.71;61.51;154532.78;5112830;28;20188;-66
2022/10/01 10:38:57;;;;;;;5.45;3.47;;;;;;;33.75;59.89;154543.03;5112996;28;20187;-66
2022/10/01 10:41:26;;;;;;;4.53;3.55;;;;;;;33.96;59.80;154596.97;5112910;28;20196;-66
2022/10/01 10:43:56;;;;;;;3.58;3.30;;;;;;;32.96;62.70;154342.66;5112894;28;20603;-67
2022/10/01 10:46:30;;;;;;;5.13;3.90;;;;;;;34.21;59.26;154661.25;5113022;28;20220;-67
2022/10/01 10:49:03;;;;;;;3.58;3.35;;;;;;;34.13;57.25;154639.38;5113814;28;20193;-67
2022/10/01 10:51:42;;;;;;;3.90;3.70;;;;;;;33.89;57.67;154580.31;5095200;28;20207;-67
2022/10/01 10:54:22;;;;;;;3.67;3.40;;;;;;;33.64;58.38;154516.03;5112518;28;20691;-65
2022/10/01 10:56:54;;;;;;;3.53;3.33;;;;;;;33.88;57.87;154577.72;5112752;28;20191;-65
2022/10/01 10:59:21;;;;;;;3.78;3.40;;;;;;;33.47;59.36;154472.38;5095226;28;20194;-65
2022/10/01 11:01:49;;;;;;;3.60;3.30;;;;;;;33.70;58.71;154531.47;5093604;28;20212;-65
2022/10/01 11:04:27;;;;;;;3.80;3.67;;;;;;;32.14;65.82;154135.97;5112553;28;20270;-66
2022/10/01 11:06:55;;;;;;;3.70;3.40;;;;;;;30.99;72.81;153842.09;5112592;28;20550;-66
2022/10/01 11:09:27;;;;;;;4.10;3.90;;;;;;;30.22;77.70;153648.47;5112213;28;20183;-66
2022/10/01 11:12:04;;;;;;;4.75;3.40;;;;;;;29.60;83.06;153489.56;5113384;28;20290;-66
2022/10/01 11:14:47;;;;;;;3.38;3.28;;;;;;;28.55;90.53;153225.66;5112199;28;20227;-66
2022/10/01 11:17:30;;;;;;;4.32;4.03;;;;;;;28.24;93.68;153146.25;5112629;28;20197;-65
2022/10/01 11:20:12;;;;;;;7.35;4.43;;;;;;;28.43;94.25;153194.88;5112010;28;20284;-66
2022/10/01 11:22:54;;;;;;;3.65;3.55;;;;;;;28.34;96.11;153171.88;5113128;28;20749;-66
2022/10/01 11:25:35;;;;;;;5.05;3.95;;;;;;;28.38;96.24;153182.13;5112933;28;20187;-66